Aviation Digital Data Service (ADDS)

Output produced by METARs form (2106 UTC 24 March 2019)
found at http://www.aviationweather.gov/metar/data/
 
ESTA 242050Z 25011KT CAVOK 06/02 Q1013
TAF ESTA 242013Z 2421/2424 25010KT 9999 FEW030 
     TEMPO 2421/2424 FEW015CB